Time;durP1;ratioP1;P1;durP2;ratioP2;P2;SDS_P1;SDS_P2;PMS_P1;PMS_P2;Temp;Humidity;BMP_temperature;BMP_pressure;BME280_temperature;BME280_humidity;BME280_pressure;Samples;Min_cycle;Max_cycle;Signal;HPM_P1;HPM_P2
2021/06/17 00:02:24;;;;;;;10.75;9.65;;;;;;;;;;4993866;28;20049;-63
2021/06/17 00:05:09;;;;;;;13.13;9.85;;;;;;;;;;4993026;28;20061;-63
2021/06/17 00:07:55;;;;;;;11.32;10.13;;;;;;;;;;4993600;28;20088;-63
2021/06/17 00:10:44;;;;;;;10.85;9.70;;;;;;;;;;4993306;28;20417;-63
2021/06/17 00:13:31;;;;;;;11.70;10.05;;;;;;;;;;4992597;28;20047;-63
2021/06/17 00:16:17;;;;;;;11.73;9.88;;;;;;;;;;4993259;28;20528;-63
2021/06/17 00:19:02;;;;;;;12.10;10.00;;;;;;;;;;4993597;28;20052;-63
2021/06/17 00:21:47;;;;;;;12.73;10.75;;;;;;;;;;4993376;28;20065;-63
2021/06/17 00:24:33;;;;;;;13.00;10.60;;;;;;;;;;4992498;28;20057;-63
2021/06/17 00:27:19;;;;;;;14.05;11.10;;;;;;;;;;4992268;28;20050;-63
2021/06/17 00:30:05;;;;;;;12.60;10.63;;;;;;;;;;4993058;28;20197;-63
2021/06/17 00:32:55;;;;;;;11.18;9.82;;;;;;;;;;4993227;28;20412;-63
2021/06/17 00:35:40;;;;;;;12.60;10.10;;;;;;;;;;4992299;28;20053;-63
2021/06/17 00:38:25;;;;;;;12.23;11.02;;;;;;;;;;4993209;28;20054;-63
2021/06/17 00:41:11;;;;;;;11.48;10.38;;;;;;;;;;4992751;28;20068;-63
2021/06/17 00:43:57;;;;;;;12.38;11.10;;;;;;;;;;4992994;28;20432;-63
2021/06/17 00:46:42;;;;;;;18.35;12.18;;;;;;;;;;4991135;28;20062;-63
2021/06/17 00:49:28;;;;;;;12.68;11.27;;;;;;;;;;4992489;28;20177;-63
2021/06/17 00:52:13;;;;;;;16.05;11.13;;;;;;;;;;4991932;28;20582;-63
2021/06/17 00:54:59;;;;;;;12.45;11.25;;;;;;;;;;4992236;28;20111;-63
2021/06/17 00:57:44;;;;;;;13.52;11.32;;;;;;;;;;4991524;28;20049;-63
2021/06/17 01:00:29;;;;;;;12.60;11.32;;;;;;;;;;5034624;23;20057;-62
2021/06/17 01:03:15;;;;;;;14.20;12.27;;;;;;;;;;4991550;28;20058;-63
2021/06/17 01:06:00;;;;;;;14.02;12.40;;;;;;;;;;4989447;28;20044;-63
2021/06/17 01:08:59;;;;;;;13.38;11.95;;;;;;;;;;4992135;28;20045;-63
2021/06/17 01:11:44;;;;;;;14.98;11.55;;;;;;;;;;4989665;28;20109;-63
2021/06/17 01:14:41;;;;;;;17.10;13.13;;;;;;;;;;4992504;28;20056;-63
2021/06/17 01:17:27;;;;;;;16.95;12.77;;;;;;;;;;4991671;28;20054;-62
2021/06/17 01:20:29;;;;;;;14.63;12.93;;;;;;;;;;4991364;28;20495;-62
2021/06/17 01:23:33;;;;;;;15.43;13.65;;;;;;;;;;4991679;28;20152;-62
2021/06/17 01:26:25;;;;;;;18.40;13.52;;;;;;;;;;4991808;28;20054;-62
2021/06/17 01:29:11;;;;;;;14.13;12.73;;;;;;;;;;4992517;28;20046;-62
2021/06/17 01:31:57;;;;;;;14.80;13.45;;;;;;;;;;4991440;28;20755;-62
2021/06/17 01:34:42;;;;;;;16.45;14.65;;;;;;;;;;4989413;28;20077;-62
2021/06/17 01:37:28;;;;;;;16.02;13.95;;;;;;;;;;4991275;28;20053;-62
2021/06/17 01:40:13;;;;;;;17.42;14.52;;;;;;;;;;4991074;28;20541;-63
2021/06/17 01:42:59;;;;;;;21.20;15.93;;;;;;;;;;4990814;28;20619;-63
2021/06/17 01:45:45;;;;;;;17.42;15.18;;;;;;;;;;4990035;28;20448;-63
2021/06/17 01:48:31;;;;;;;23.05;17.30;;;;;;;;;;4991341;28;20046;-63
2021/06/17 01:51:20;;;;;;;16.88;14.95;;;;;;;;;;4992012;28;20052;-63
2021/06/17 01:54:05;;;;;;;19.63;17.63;;;;;;;;;;4991674;28;20058;-63
2021/06/17 01:56:51;;;;;;;19.58;17.45;;;;;;;;;;4991890;28;20124;-63
2021/06/17 01:59:36;;;;;;;20.17;18.27;;;;;;;;;;4991172;28;20117;-63
2021/06/17 02:02:21;;;;;;;20.73;18.77;;;;;;;;;;4992022;28;20076;-63
2021/06/17 02:05:07;;;;;;;20.02;17.73;;;;;;;;;;4984555;28;20073;-63
2021/06/17 02:07:53;;;;;;;22.92;19.25;;;;;;;;;;4972852;28;20061;-62
2021/06/17 02:10:39;;;;;;;22.65;20.15;;;;;;;;;;4972404;28;20050;-62
2021/06/17 02:13:25;;;;;;;21.50;19.40;;;;;;;;;;4972870;28;20054;-62
2021/06/17 02:16:11;;;;;;;22.63;20.13;;;;;;;;;;4988090;28;20053;-62
2021/06/17 02:18:57;;;;;;;22.85;20.75;;;;;;;;;;4995521;28;20042;-62
2021/06/17 02:21:42;;;;;;;23.98;21.50;;;;;;;;;;4994369;28;20493;-62
2021/06/17 02:24:28;;;;;;;23.92;21.30;;;;;;;;;;4994434;28;20069;-62
2021/06/17 02:27:14;;;;;;;23.17;20.98;;;;;;;;;;4995044;28;20046;-62
2021/06/17 02:30:01;;;;;;;23.60;21.27;;;;;;;;;;4995264;28;20050;-62
2021/06/17 02:32:49;;;;;;;24.33;21.90;;;;;;;;;;4994558;28;20049;-62
2021/06/17 02:35:34;;;;;;;23.60;21.27;;;;;;;;;;4993496;28;20069;-62
2021/06/17 02:38:21;;;;;;;24.77;22.55;;;;;;;;;;4994388;28;20050;-63
2021/06/17 02:41:08;;;;;;;25.30;22.80;;;;;;;;;;4995007;28;20054;-63
2021/06/17 02:43:54;;;;;;;27.33;24.55;;;;;;;;;;4994489;28;20049;-63
2021/06/17 02:46:39;;;;;;;25.67;23.27;;;;;;;;;;4994237;28;20065;-63
2021/06/17 02:49:24;;;;;;;25.40;22.92;;;;;;;;;;4994354;28;20117;-63
2021/06/17 02:52:10;;;;;;;26.80;24.00;;;;;;;;;;4994511;28;20061;-63
2021/06/17 02:54:55;;;;;;;28.05;25.15;;;;;;;;;;4995083;28;20046;-63
2021/06/17 02:57:59;;;;;;;27.52;24.90;;;;;;;;;;4992966;28;20713;-63
2021/06/17 03:00:46;;;;;;;28.35;25.50;;;;;;;;;;4994500;28;20117;-63
2021/06/17 03:03:41;;;;;;;27.67;25.10;;;;;;;;;;4994071;28;20054;-63
2021/06/17 03:06:30;;;;;;;27.33;24.88;;;;;;;;;;4994054;28;20073;-63
2021/06/17 03:09:15;;;;;;;25.45;22.85;;;;;;;;;;4980031;28;20061;-63
2021/06/17 03:12:01;;;;;;;27.35;24.50;;;;;;;;;;4993756;28;20042;-63
2021/06/17 03:14:46;;;;;;;26.83;24.00;;;;;;;;;;4994670;28;20068;-63
2021/06/17 03:17:31;;;;;;;28.55;25.75;;;;;;;;;;4992339;28;20514;-63
2021/06/17 03:20:17;;;;;;;28.17;25.50;;;;;;;;;;4993664;28;20093;-63
2021/06/17 03:23:06;;;;;;;30.95;28.15;;;;;;;;;;4993540;28;20127;-63
2021/06/17 03:25:52;;;;;;;30.60;27.52;;;;;;;;;;4994450;28;20165;-63
2021/06/17 03:28:40;;;;;;;31.13;27.98;;;;;;;;;;4992666;28;20046;-63
2021/06/17 03:31:26;;;;;;;31.02;27.95;;;;;;;;;;4993307;28;20055;-63
2021/06/17 03:34:11;;;;;;;32.03;28.98;;;;;;;;;;4993601;28;20050;-62
2021/06/17 03:36:57;;;;;;;32.60;29.33;;;;;;;;;;4994075;28;20052;-62
2021/06/17 03:39:43;;;;;;;31.00;28.00;;;;;;;;;;4972544;28;20061;-62
2021/06/17 03:42:29;;;;;;;29.70;27.00;;;;;;;;;;4974036;28;20054;-62
2021/06/17 03:45:14;;;;;;;29.50;26.75;;;;;;;;;;4976880;28;20524;-62
2021/06/17 03:48:00;;;;;;;29.63;26.63;;;;;;;;;;4974443;28;20190;-62
2021/06/17 03:50:45;;;;;;;29.92;26.98;;;;;;;;;;4973681;28;20053;-62
2021/06/17 03:53:30;;;;;;;29.92;27.27;;;;;;;;;;4975199;28;20057;-62
2021/06/17 03:56:16;;;;;;;30.08;27.40;;;;;;;;;;4982305;28;20069;-63
2021/06/17 03:59:01;;;;;;;31.48;28.42;;;;;;;;;;4993742;28;20057;-63
2021/06/17 04:01:46;;;;;;;29.90;27.20;;;;;;;;;;4992771;28;20045;-62
2021/06/17 04:04:31;;;;;;;30.50;27.40;;;;;;;;;;4979815;28;20109;-63
2021/06/17 04:07:21;;;;;;;32.22;28.92;;;;;;;;;;4992381;28;20047;-63
2021/06/17 04:10:06;;;;;;;29.58;27.05;;;;;;;;;;4993214;28;20049;-63
2021/06/17 04:12:52;;;;;;;28.70;26.08;;;;;;;;;;4993903;28;20046;-63
2021/06/17 04:15:38;;;;;;;29.30;26.55;;;;;;;;;;4992770;28;20065;-62
2021/06/17 04:18:24;;;;;;;27.95;25.23;;;;;;;;;;4974933;28;20047;-62
2021/06/17 04:21:10;;;;;;;28.88;26.02;;;;;;;;;;4973265;28;20121;-62
2021/06/17 04:23:56;;;;;;;27.65;25.02;;;;;;;;;;4973425;28;20124;-62
2021/06/17 04:26:41;;;;;;;28.35;25.67;;;;;;;;;;4976193;28;20042;-62
2021/06/17 04:29:27;;;;;;;28.23;25.70;;;;;;;;;;4977553;28;20074;-62
2021/06/17 04:32:13;;;;;;;27.50;24.88;;;;;;;;;;4985426;28;20082;-62
2021/06/17 04:34:59;;;;;;;27.45;24.92;;;;;;;;;;4972863;28;20050;-62
2021/06/17 04:37:44;;;;;;;27.33;24.55;;;;;;;;;;4980912;28;20162;-62
2021/06/17 04:40:29;;;;;;;25.38;22.98;;;;;;;;;;4990580;28;20183;-62
2021/06/17 04:43:17;;;;;;;25.65;23.15;;;;;;;;;;4993403;28;20401;-62
2021/06/17 04:46:02;;;;;;;25.35;22.88;;;;;;;;;;4992322;28;20124;-63
2021/06/17 04:48:48;;;;;;;24.75;22.15;;;;;;;;;;4991518;28;20046;-62
2021/06/17 04:51:35;;;;;;;25.77;23.13;;;;;;;;;;4991410;28;20452;-62
2021/06/17 04:54:20;;;;;;;23.88;21.67;;;;;;;;;;4992482;28;20629;-62
2021/06/17 04:57:05;;;;;;;23.75;21.48;;;;;;;;;;4993024;28;20110;-63
2021/06/17 04:59:51;;;;;;;26.20;21.77;;;;;;;;;;4991603;28;20049;-62
2021/06/17 05:02:36;;;;;;;23.83;21.70;;;;;;;;;;4984772;28;20046;-62
2021/06/17 05:05:21;;;;;;;23.98;21.75;;;;;;;;;;4976998;28;20414;-62
2021/06/17 05:11:04;;;;;;;24.25;21.67;;;;;;;;;;4991782;28;20054;-62
2021/06/17 05:13:49;;;;;;;24.95;22.55;;;;;;;;;;4991819;28;20049;-62
2021/06/17 05:16:35;;;;;;;22.85;20.52;;;;;;;;;;4993299;28;20046;-62
2021/06/17 05:19:20;;;;;;;21.98;19.98;;;;;;;;;;4991759;28;20049;-61
2021/06/17 05:22:05;;;;;;;22.08;20.08;;;;;;;;;;4992734;28;20057;-62
2021/06/17 05:24:51;;;;;;;22.55;20.40;;;;;;;;;;4992707;28;20050;-62
2021/06/17 05:27:40;;;;;;;21.25;19.45;;;;;;;;;;4993177;28;20042;-63
2021/06/17 05:30:30;;;;;;;23.05;21.10;;;;;;;;;;4991249;28;20046;-63
2021/06/17 05:33:15;;;;;;;21.17;19.13;;;;;;;;;;4993107;28;20054;-62
2021/06/17 05:36:01;;;;;;;26.42;21.05;;;;;;;;;;4993417;28;20038;-63
2021/06/17 05:38:48;;;;;;;21.27;18.98;;;;;;;;;;4992932;28;20057;-62
2021/06/17 05:41:33;;;;;;;20.05;18.02;;;;;;;;;;4974349;28;20047;-64
2021/06/17 05:44:19;;;;;;;88.72;23.27;;;;;;;;;;4973798;28;20498;-63
2021/06/17 05:47:04;;;;;;;36.63;21.30;;;;;;;;;;4973401;28;20524;-64
2021/06/17 05:49:49;;;;;;;23.52;18.42;;;;;;;;;;4977090;28;20053;-64
2021/06/17 05:52:35;;;;;;;21.90;17.95;;;;;;;;;;4993409;28;20053;-63
2021/06/17 05:55:20;;;;;;;19.50;17.58;;;;;;;;;;4986943;28;20050;-64
2021/06/17 05:58:05;;;;;;;116.15;26.88;;;;;;;;;;4988458;28;20073;-64
2021/06/17 06:00:51;;;;;;;32.33;18.42;;;;;;;;;;4988293;28;20058;-63
2021/06/17 06:03:36;;;;;;;37.83;18.70;;;;;;;;;;4990058;28;20086;-63
2021/06/17 06:06:22;;;;;;;19.67;16.35;;;;;;;;;;4988709;28;20050;-63
2021/06/17 06:09:08;;;;;;;17.33;15.65;;;;;;;;;;4994262;28;20061;-64
2021/06/17 06:11:54;;;;;;;17.38;15.60;;;;;;;;;;4995215;28;20133;-64
2021/06/17 06:14:39;;;;;;;16.73;15.23;;;;;;;;;;4995760;28;20073;-64
2021/06/17 06:17:24;;;;;;;20.60;15.93;;;;;;;;;;4996409;28;20077;-64
2021/06/17 06:20:11;;;;;;;21.52;16.15;;;;;;;;;;4996492;28;20431;-63
2021/06/17 06:22:56;;;;;;;67.00;20.50;;;;;;;;;;4995466;28;20061;-64
2021/06/17 06:25:45;;;;;;;33.67;16.15;;;;;;;;;;4996058;28;20497;-64
2021/06/17 06:28:32;;;;;;;14.68;13.23;;;;;;;;;;4996214;28;20046;-64
2021/06/17 06:31:17;;;;;;;15.13;13.55;;;;;;;;;;4995156;28;20045;-63
2021/06/17 06:34:03;;;;;;;13.50;12.20;;;;;;;;;;4975662;28;20046;-64
2021/06/17 06:36:48;;;;;;;70.68;16.92;;;;;;;;;;4976873;28;20512;-63
2021/06/17 06:39:34;;;;;;;13.02;11.73;;;;;;;;;;4975998;28;20051;-64
2021/06/17 06:42:19;;;;;;;83.95;17.92;;;;;;;;;;4980461;28;20042;-63
2021/06/17 06:45:05;;;;;;;14.15;12.63;;;;;;;;;;4995627;28;20133;-64
2021/06/17 06:47:53;;;;;;;12.95;11.65;;;;;;;;;;4995739;28;20531;-64
2021/06/17 06:50:38;;;;;;;12.65;11.43;;;;;;;;;;4995181;28;20050;-64
2021/06/17 06:53:24;;;;;;;14.68;11.07;;;;;;;;;;4993964;28;20117;-63
2021/06/17 06:56:10;;;;;;;57.03;17.77;;;;;;;;;;4994917;28;20046;-64
2021/06/17 06:58:55;;;;;;;12.38;11.13;;;;;;;;;;4995732;28;20057;-62
2021/06/17 07:01:41;;;;;;;125.80;20.95;;;;;;;;;;5035323;23;20057;-62
2021/06/17 07:04:26;;;;;;;16.25;11.35;;;;;;;;;;4993965;28;20567;-62
2021/06/17 07:07:11;;;;;;;15.77;11.35;;;;;;;;;;4995090;28;20128;-62
2021/06/17 07:09:56;;;;;;;13.55;11.32;;;;;;;;;;4994742;28;20061;-61
2021/06/17 07:12:42;;;;;;;13.15;11.80;;;;;;;;;;5013478;28;20058;-62
2021/06/17 07:15:27;;;;;;;13.40;11.02;;;;;;;;;;5014453;28;20060;-63
2021/06/17 07:18:13;;;;;;;12.60;11.40;;;;;;;;;;5014148;28;20049;-62
2021/06/17 07:20:58;;;;;;;11.48;10.27;;;;;;;;;;5009448;28;20121;-62
2021/06/17 07:23:49;;;;;;;12.23;10.93;;;;;;;;;;4993239;28;20049;-62
2021/06/17 07:26:35;;;;;;;12.25;10.88;;;;;;;;;;4994625;28;20057;-62
2021/06/17 07:29:20;;;;;;;11.27;10.18;;;;;;;;;;4994496;28;20057;-62
2021/06/17 07:32:08;;;;;;;12.45;10.85;;;;;;;;;;5002224;28;20057;-62
2021/06/17 07:34:53;;;;;;;11.95;10.75;;;;;;;;;;5012009;28;20050;-62
2021/06/17 07:37:39;;;;;;;15.10;11.25;;;;;;;;;;5013821;28;20056;-62
2021/06/17 07:40:24;;;;;;;11.60;10.50;;;;;;;;;;5013624;28;20123;-61
2021/06/17 07:43:10;;;;;;;11.73;10.52;;;;;;;;;;5011966;28;20156;-62
2021/06/17 07:45:55;;;;;;;11.82;10.70;;;;;;;;;;5013718;28;20100;-62
2021/06/17 07:48:41;;;;;;;11.38;10.38;;;;;;;;;;5013764;28;20404;-62
2021/06/17 07:51:28;;;;;;;11.32;10.15;;;;;;;;;;5013505;28;20056;-62
2021/06/17 07:54:18;;;;;;;12.57;9.60;;;;;;;;;;4973632;28;20062;-62
2021/06/17 07:57:03;;;;;;;11.38;9.32;;;;;;;;;;4975724;28;20119;-63
2021/06/17 07:59:48;;;;;;;10.55;9.48;;;;;;;;;;4976619;28;20062;-63
2021/06/17 08:02:34;;;;;;;12.48;9.00;;;;;;;;;;4975813;28;20105;-63
2021/06/17 08:05:19;;;;;;;9.65;8.75;;;;;;;;;;4976556;28;20429;-63
2021/06/17 08:08:07;;;;;;;13.23;9.00;;;;;;;;;;5001020;28;20130;-63
2021/06/17 08:10:52;;;;;;;10.18;9.23;;;;;;;;;;5013619;28;20072;-63
2021/06/17 08:13:37;;;;;;;10.13;9.05;;;;;;;;;;5014242;28;20053;-63
2021/06/17 08:16:23;;;;;;;9.77;8.63;;;;;;;;;;5014724;28;20323;-63
2021/06/17 08:19:08;;;;;;;12.27;7.93;;;;;;;;;;5012201;28;20049;-63
2021/06/17 08:21:53;;;;;;;8.75;7.85;;;;;;;;;;5014201;28;20053;-63
2021/06/17 08:24:40;;;;;;;10.68;8.07;;;;;;;;;;5014201;28;20052;-62
2021/06/17 08:27:25;;;;;;;11.23;8.00;;;;;;;;;;5012108;28;20076;-63
2021/06/17 08:30:12;;;;;;;8.00;6.80;;;;;;;;;;5012268;28;20539;-63
2021/06/17 08:32:57;;;;;;;8.25;6.55;;;;;;;;;;5014685;28;20052;-62
2021/06/17 08:35:43;;;;;;;20.00;8.18;;;;;;;;;;5014269;28;20050;-63
2021/06/17 08:38:28;;;;;;;9.80;6.65;;;;;;;;;;5005315;28;20046;-63
2021/06/17 08:41:13;;;;;;;9.77;7.07;;;;;;;;;;4993053;28;20049;-63
2021/06/17 08:43:59;;;;;;;7.53;6.65;;;;;;;;;;4994702;28;20050;-63
2021/06/17 08:46:44;;;;;;;10.65;6.80;;;;;;;;;;4994183;28;20061;-63
2021/06/17 08:49:30;;;;;;;10.77;6.60;;;;;;;;;;4993803;28;20515;-62
2021/06/17 08:52:15;;;;;;;7.82;6.45;;;;;;;;;;4993510;28;20065;-61
2021/06/17 08:55:10;;;;;;;10.57;6.05;;;;;;;;;;4992187;28;20623;-63
2021/06/17 08:57:55;;;;;;;6.50;5.43;;;;;;;;;;4993286;28;20050;-63
2021/06/17 09:00:41;;;;;;;6.35;5.72;;;;;;;;;;4993455;28;20057;-63
2021/06/17 09:03:26;;;;;;;9.32;5.82;;;;;;;;;;4993948;28;20516;-63
2021/06/17 09:06:12;;;;;;;8.48;5.20;;;;;;;;;;4993109;28;20043;-63
2021/06/17 09:08:58;;;;;;;6.88;5.38;;;;;;;;;;4991297;28;20516;-63
2021/06/17 09:11:44;;;;;;;8.65;5.03;;;;;;;;;;4992738;28;20050;-62
2021/06/17 09:14:29;;;;;;;7.03;5.00;;;;;;;;;;4992099;28;20046;-63
2021/06/17 09:17:14;;;;;;;6.50;5.20;;;;;;;;;;4992733;28;20480;-63
2021/06/17 09:19:59;;;;;;;11.25;4.88;;;;;;;;;;4991577;28;20073;-63
2021/06/17 09:22:45;;;;;;;6.82;4.80;;;;;;;;;;4998665;28;20117;-63
2021/06/17 09:25:30;;;;;;;5.70;4.47;;;;;;;;;;5000243;28;20074;-63
2021/06/17 09:28:15;;;;;;;18.52;5.50;;;;;;;;;;4996386;28;20432;-63
2021/06/17 09:31:00;;;;;;;8.63;4.97;;;;;;;;;;4996291;28;20057;-63
2021/06/17 09:33:46;;;;;;;6.40;4.90;;;;;;;;;;4995686;28;20054;-63
2021/06/17 09:36:32;;;;;;;6.25;4.65;;;;;;;;;;5007748;28;20042;-62
2021/06/17 09:39:18;;;;;;;7.53;5.05;;;;;;;;;;5016017;28;20053;-62
2021/06/17 09:42:11;;;;;;;6.45;5.85;;;;;;;;;;5016109;28;20046;-63
2021/06/17 09:44:58;;;;;;;7.50;5.45;;;;;;;;;;5015906;28;20420;-63
2021/06/17 09:47:45;;;;;;;9.98;4.22;;;;;;;;;;5014794;28;20072;-63
2021/06/17 09:50:30;;;;;;;6.88;3.88;;;;;;;;;;5015954;28;20057;-63
2021/06/17 09:53:24;;;;;;;4.47;3.28;;;;;;;;;;5016029;28;20061;-62
2021/06/17 09:56:09;;;;;;;8.48;3.95;;;;;;;;;;5014265;28;20056;-62
2021/06/17 09:58:54;;;;;;;4.95;4.00;;;;;;;;;;5014801;28;20057;-62
2021/06/17 10:01:45;;;;;;;7.25;4.10;;;;;;;;;;5014248;28;20057;-63
2021/06/17 10:04:30;;;;;;;15.70;4.63;;;;;;;;;;5015672;28;20042;-62
2021/06/17 10:07:18;;;;;;;4.30;3.58;;;;;;;;;;5003958;28;20061;-62
2021/06/17 10:10:04;;;;;;;6.93;3.95;;;;;;;;;;4995681;28;20432;-63
2021/06/17 10:12:49;;;;;;;8.50;4.22;;;;;;;;;;4995986;28;20057;-63
2021/06/17 10:15:34;;;;;;;5.68;3.60;;;;;;;;;;4995837;28;20060;-62
2021/06/17 10:18:20;;;;;;;4.32;3.70;;;;;;;;;;5009765;28;20046;-63
2021/06/17 10:21:12;;;;;;;5.85;3.55;;;;;;;;;;5014838;28;20128;-63
2021/06/17 10:23:57;;;;;;;7.18;3.55;;;;;;;;;;5015308;28;20045;-62
2021/06/17 10:27:03;;;;;;;5.78;3.47;;;;;;;;;;5013768;28;20073;-62
2021/06/17 10:29:48;;;;;;;6.03;3.60;;;;;;;;;;4991416;28;20177;-62
2021/06/17 10:32:37;;;;;;;3.53;3.00;;;;;;;;;;4995734;28;20113;-63
2021/06/17 10:35:27;;;;;;;5.60;3.42;;;;;;;;;;4996380;28;20428;-63
2021/06/17 10:38:12;;;;;;;3.88;3.42;;;;;;;;;;4994646;28;20046;-63
2021/06/17 10:40:58;;;;;;;6.05;3.28;;;;;;;;;;4994126;28;20079;-63
2021/06/17 10:43:46;;;;;;;5.43;3.50;;;;;;;;;;4996051;28;20065;-64
2021/06/17 10:46:43;;;;;;;3.55;3.20;;;;;;;;;;4995134;28;20511;-63
2021/06/17 10:49:49;;;;;;;6.25;3.53;;;;;;;;;;5009431;28;20172;-62
2021/06/17 10:52:34;;;;;;;5.40;3.40;;;;;;;;;;5012310;28;20426;-63
2021/06/17 10:55:23;;;;;;;5.05;3.53;;;;;;;;;;5013689;28;20623;-63
2021/06/17 10:58:09;;;;;;;7.38;3.45;;;;;;;;;;5012863;28;20679;-63
2021/06/17 11:00:54;;;;;;;6.55;3.50;;;;;;;;;;5025857;28;20073;-64
2021/06/17 11:03:39;;;;;;;6.82;3.60;;;;;;;;;;5014586;28;20048;-63
2021/06/17 11:06:25;;;;;;;3.88;3.58;;;;;;;;;;5014424;28;20050;-63
2021/06/17 11:09:29;;;;;;;3.80;3.22;;;;;;;;;;5012442;28;20052;-63
2021/06/17 11:12:14;;;;;;;7.05;3.55;;;;;;;;;;5013919;28;20420;-63
2021/06/17 11:15:01;;;;;;;5.07;3.63;;;;;;;;;;5014587;28;20056;-63
2021/06/17 11:17:46;;;;;;;5.43;3.95;;;;;;;;;;5014315;28;20060;-63
2021/06/17 11:20:35;;;;;;;12.15;4.43;;;;;;;;;;5012151;28;20505;-63
2021/06/17 11:23:21;;;;;;;4.03;3.17;;;;;;;;;;5013858;28;20056;-63
2021/06/17 11:26:06;;;;;;;4.15;3.47;;;;;;;;;;5013052;28;20061;-63
2021/06/17 11:28:52;;;;;;;5.80;3.28;;;;;;;;;;5013829;28;20057;-63
2021/06/17 11:31:41;;;;;;;6.95;3.75;;;;;;;;;;4974716;28;20060;-62
2021/06/17 11:34:36;;;;;;;4.55;3.03;;;;;;;;;;4975086;28;20050;-62
2021/06/17 11:37:22;;;;;;;5.53;3.22;;;;;;;;;;4975050;28;20057;-62
2021/06/17 11:40:08;;;;;;;5.82;3.55;;;;;;;;;;4986526;28;20041;-63
2021/06/17 11:42:54;;;;;;;21.15;4.47;;;;;;;;;;5008578;28;20096;-62
2021/06/17 11:45:39;;;;;;;6.82;3.05;;;;;;;;;;5012358;28;20046;-62
2021/06/17 11:48:25;;;;;;;6.57;3.03;;;;;;;;;;5013848;28;20078;-63
2021/06/17 11:51:10;;;;;;;16.58;3.53;;;;;;;;;;5013080;28;20048;-62
2021/06/17 11:53:56;;;;;;;4.32;2.85;;;;;;;;;;4995282;28;20046;-63
2021/06/17 11:56:41;;;;;;;11.63;3.15;;;;;;;;;;4993750;28;20042;-62
2021/06/17 11:59:27;;;;;;;3.55;2.70;;;;;;;;;;4993713;28;20044;-63
2021/06/17 12:02:14;;;;;;;4.70;2.83;;;;;;;;;;4993691;28;20404;-63
2021/06/17 12:05:08;;;;;;;4.38;2.92;;;;;;;;;;4973012;28;20119;-62
2021/06/17 12:07:55;;;;;;;4.13;2.67;;;;;;;;;;4974404;28;20129;-63
2021/06/17 12:10:51;;;;;;;3.50;3.20;;;;;;;;;;4974055;28;20054;-63
2021/06/17 12:13:37;;;;;;;7.80;3.60;;;;;;;;;;4988015;28;20052;-63
2021/06/17 12:16:22;;;;;;;9.02;3.05;;;;;;;;;;5012506;28;20042;-63
2021/06/17 12:19:15;;;;;;;6.28;2.45;;;;;;;;;;5013097;28;20046;-63
2021/06/17 12:22:07;;;;;;;4.10;2.78;;;;;;;;;;5012969;28;20096;-63
2021/06/17 12:24:53;;;;;;;3.75;2.58;;;;;;;;;;5011048;28;20123;-63
2021/06/17 12:27:43;;;;;;;4.30;2.60;;;;;;;;;;5012710;28;20053;-63
2021/06/17 12:30:29;;;;;;;;;;;;;;;;;;5013219;28;20507;-62
2021/06/17 12:33:15;;;;;;;6.22;2.58;;;;;;;;;;4995565;28;19921;-63
2021/06/17 12:36:02;;;;;;;7.72;2.47;;;;;;;;;;4993022;28;20050;-63
2021/06/17 12:38:47;;;;;;;5.65;2.22;;;;;;;;;;4993430;28;20050;-63
2021/06/17 12:41:40;;;;;;;4.25;2.17;;;;;;;;;;4992819;28;20084;-62
2021/06/17 12:44:32;;;;;;;5.25;2.47;;;;;;;;;;4991352;28;20504;-62
2021/06/17 12:47:21;;;;;;;3.17;2.55;;;;;;;;;;4993201;28;20537;-63
2021/06/17 12:53:00;;;;;;;5.82;2.28;;;;;;;;;;4992581;28;20173;-62
2021/06/17 12:55:47;;;;;;;2.97;2.20;;;;;;;;;;4991677;28;20065;-62
2021/06/17 12:58:32;;;;;;;5.43;2.67;;;;;;;;;;4992836;28;20050;-62
2021/06/17 13:01:21;;;;;;;4.65;2.15;;;;;;;;;;5027973;23;20503;31
2021/06/17 13:04:13;;;;;;;5.75;2.78;;;;;;;;;;4943547;29;20113;-65
2021/06/17 13:06:59;;;;;;;4.50;2.50;;;;;;;;;;4953721;28;20572;-65
2021/06/17 13:09:44;;;;;;;8.88;2.50;;;;;;;;;;4953995;28;20047;-65
2021/06/17 13:12:31;;;;;;;4.80;2.33;;;;;;;;;;4954073;28;20182;-64
2021/06/17 13:15:24;;;;;;;4.43;2.38;;;;;;;;;;4951915;28;20066;-62
2021/06/17 13:18:10;;;;;;;3.85;2.10;;;;;;;;;;4953970;28;20066;-62
2021/06/17 13:20:59;;;;;;;5.07;2.10;;;;;;;;;;4953781;28;20059;-63
2021/06/17 13:23:44;;;;;;;4.88;2.55;;;;;;;;;;4951712;28;20105;-63
2021/06/17 13:26:30;;;;;;;6.18;2.60;;;;;;;;;;4953790;28;20536;-63
2021/06/17 13:29:16;;;;;;;9.15;3.28;;;;;;;;;;4954151;28;20058;-62
2021/06/17 13:32:01;;;;;;;4.00;2.97;;;;;;;;;;4953699;28;20524;-62
2021/06/17 13:34:46;;;;;;;5.35;2.95;;;;;;;;;;4952135;28;20159;-63
2021/06/17 13:37:31;;;;;;;13.13;3.60;;;;;;;;;;4953809;28;20058;-64
2021/06/17 13:40:17;;;;;;;3.72;2.78;;;;;;;;;;4953470;28;20054;-63
2021/06/17 13:43:03;;;;;;;3.42;2.75;;;;;;;;;;4953803;28;20054;-64
2021/06/17 13:45:48;;;;;;;4.25;3.88;;;;;;;;;;4946276;28;20125;-63
2021/06/17 13:48:36;;;;;;;156.50;20.77;;;;;;;;;;4953591;28;20512;-64
2021/06/17 13:51:22;;;;;;;40.35;6.45;;;;;;;;;;4953483;28;20054;-63
2021/06/17 13:54:07;;;;;;;20.95;5.13;;;;;;;;;;4953685;28;20051;-63
2021/06/17 13:56:53;;;;;;;5.70;4.13;;;;;;;;;;4953582;28;20629;-63
2021/06/17 13:59:39;;;;;;;5.50;3.85;;;;;;;;;;4953582;28;20098;-63
2021/06/17 14:02:25;;;;;;;7.80;4.68;;;;;;;;;;4953601;28;20050;-63
2021/06/17 14:05:10;;;;;;;9.68;4.90;;;;;;;;;;4951703;28;20497;-63
2021/06/17 14:07:57;;;;;;;6.30;4.75;;;;;;;;;;4953768;28;20061;-63
2021/06/17 14:10:42;;;;;;;7.18;5.13;;;;;;;;;;4953331;28;20062;-63
2021/06/17 14:13:27;;;;;;;7.97;4.88;;;;;;;;;;4955798;28;20099;-63
2021/06/17 14:16:12;;;;;;;8.70;4.80;;;;;;;;;;4955136;28;20039;-63
2021/06/17 14:18:58;;;;;;;8.02;4.82;;;;;;;;;;4956983;28;20055;-63
2021/06/17 14:21:43;;;;;;;5.90;4.28;;;;;;;;;;4956805;28;20052;-63
2021/06/17 14:24:28;;;;;;;5.20;4.32;;;;;;;;;;4957081;28;20071;-63
2021/06/17 14:27:14;;;;;;;9.73;5.22;;;;;;;;;;4954271;28;20613;-63
2021/06/17 14:30:00;;;;;;;8.27;5.28;;;;;;;;;;4956112;28;20047;-63
2021/06/17 14:32:45;;;;;;;6.75;4.30;;;;;;;;;;4956652;28;20094;-62
2021/06/17 14:35:30;;;;;;;8.65;4.60;;;;;;;;;;4956766;28;20537;-63
2021/06/17 14:38:16;;;;;;;6.80;3.70;;;;;;;;;;4955016;29;20182;-63
2021/06/17 14:41:01;;;;;;;10.40;3.72;;;;;;;;;;4955334;29;20054;-63
2021/06/17 14:43:46;;;;;;;9.73;4.07;;;;;;;;;;4956746;28;20051;-63
2021/06/17 14:46:32;;;;;;;8.35;3.83;;;;;;;;;;4952603;28;20066;-63
2021/06/17 14:49:17;;;;;;;9.07;3.15;;;;;;;;;;4937202;29;20181;-63
2021/06/17 14:52:02;;;;;;;7.57;3.08;;;;;;;;;;4937157;29;20525;-62
2021/06/17 14:54:48;;;;;;;10.77;3.33;;;;;;;;;;4937294;29;20047;-63
2021/06/17 14:57:33;;;;;;;8.20;3.53;;;;;;;;;;4936030;29;20088;-63
2021/06/17 15:00:20;;;;;;;5.70;3.50;;;;;;;;;;4933749;29;20529;-63
2021/06/17 15:03:05;;;;;;;4.85;2.88;;;;;;;;;;4956044;28;20046;-63
2021/06/17 15:05:50;;;;;;;6.50;3.83;;;;;;;;;;4956162;28;20133;-63
2021/06/17 15:08:36;;;;;;;5.93;4.18;;;;;;;;;;4953212;29;20174;-63
2021/06/17 15:11:21;;;;;;;7.65;3.88;;;;;;;;;;4955830;29;20114;-63
2021/06/17 15:14:07;;;;;;;7.47;3.90;;;;;;;;;;4955947;28;20505;-63
2021/06/17 15:16:53;;;;;;;6.20;3.72;;;;;;;;;;4956141;28;20171;-63
2021/06/17 15:19:38;;;;;;;6.90;3.72;;;;;;;;;;4954069;28;20054;-63
2021/06/17 15:22:24;;;;;;;10.68;3.83;;;;;;;;;;4955704;28;20054;-63
2021/06/17 15:25:09;;;;;;;4.85;3.08;;;;;;;;;;4954665;28;20525;-63
2021/06/17 15:27:54;;;;;;;9.20;3.58;;;;;;;;;;4954291;28;20106;-63
2021/06/17 15:30:39;;;;;;;6.35;3.00;;;;;;;;;;4954068;28;20062;-62
2021/06/17 15:33:25;;;;;;;4.93;2.63;;;;;;;;;;4955832;28;20050;-62
2021/06/17 15:36:10;;;;;;;5.53;2.80;;;;;;;;;;4955656;28;20051;-62
2021/06/17 15:38:56;;;;;;;7.00;2.67;;;;;;;;;;4953808;28;20524;-62
2021/06/17 15:41:41;;;;;;;7.63;2.58;;;;;;;;;;4955333;28;20122;-64
2021/06/17 15:44:27;;;;;;;8.57;3.03;;;;;;;;;;4955668;28;20039;-63
2021/06/17 15:47:12;;;;;;;7.03;3.38;;;;;;;;;;4955278;28;20520;-63
2021/06/17 15:49:57;;;;;;;8.10;2.40;;;;;;;;;;4953200;28;20062;-63
2021/06/17 15:52:45;;;;;;;7.65;3.03;;;;;;;;;;4955270;28;20146;-63
2021/06/17 15:55:30;;;;;;;8.30;2.90;;;;;;;;;;4955770;28;20059;-63
2021/06/17 15:58:16;;;;;;;11.15;2.85;;;;;;;;;;4955155;28;20504;-63
2021/06/17 16:01:01;;;;;;;6.80;2.42;;;;;;;;;;4952331;28;20057;-63
2021/06/17 16:03:47;;;;;;;13.10;2.95;;;;;;;;;;4954870;29;20163;-63
2021/06/17 16:06:32;;;;;;;7.05;3.05;;;;;;;;;;4955178;28;20057;-64
2021/06/17 16:09:18;;;;;;;4.70;2.97;;;;;;;;;;4952730;28;20514;-63
2021/06/17 16:12:03;;;;;;;5.30;2.85;;;;;;;;;;4954962;29;20051;-63
2021/06/17 16:14:48;;;;;;;10.80;3.90;;;;;;;;;;4955146;28;20410;-63
2021/06/17 16:17:34;;;;;;;9.43;3.72;;;;;;;;;;4954866;28;20054;-63
2021/06/17 16:20:20;;;;;;;9.15;3.65;;;;;;;;;;4952705;28;20046;-63
2021/06/17 16:23:05;;;;;;;7.78;3.42;;;;;;;;;;4954082;29;20519;-63
2021/06/17 16:25:50;;;;;;;18.13;4.15;;;;;;;;;;4954836;28;20050;-63
2021/06/17 16:28:36;;;;;;;6.93;4.40;;;;;;;;;;4954798;28;20051;-63
2021/06/17 16:31:21;;;;;;;7.45;4.25;;;;;;;;;;4951842;28;20059;-62